sensor_id;sensor_type;location;lat;lon;timestamp;P1;durP1;ratioP1;P2;durP2;ratioP2
80425;SDS011;69766;51.476;5.704;2023-06-01T00:01:12;20.27;;;9.52;;
80425;SDS011;69766;51.476;5.704;2023-06-01T00:03:39;18.20;;;9.73;;
80425;SDS011;69766;51.476;5.704;2023-06-01T00:06:05;22.48;;;9.20;;
80425;SDS011;69766;51.476;5.704;2023-06-01T00:08:31;18.45;;;9.15;;
80425;SDS011;69766;51.476;5.704;2023-06-01T00:10:57;25.90;;;10.45;;
80425;SDS011;69766;51.476;5.704;2023-06-01T00:13:22;25.27;;;9.68;;
80425;SDS011;69766;51.476;5.704;2023-06-01T00:15:48;21.00;;;10.55;;
80425;SDS011;69766;51.476;5.704;2023-06-01T00:18:14;21.73;;;9.55;;
80425;SDS011;69766;51.476;5.704;2023-06-01T00:20:40;21.85;;;10.20;;
80425;SDS011;69766;51.476;5.704;2023-06-01T00:23:06;22.13;;;10.30;;
80425;SDS011;69766;51.476;5.704;2023-06-01T00:25:33;21.52;;;10.38;;
80425;SDS011;69766;51.476;5.704;2023-06-01T00:27:59;22.00;;;10.30;;
80425;SDS011;69766;51.476;5.704;2023-06-01T00:30:27;21.65;;;10.02;;
80425;SDS011;69766;51.476;5.704;2023-06-01T00:32:53;23.88;;;11.45;;
80425;SDS011;69766;51.476;5.704;2023-06-01T00:35:18;27.10;;;11.82;;
80425;SDS011;69766;51.476;5.704;2023-06-01T00:37:44;21.40;;;11.25;;
80425;SDS011;69766;51.476;5.704;2023-06-01T00:40:10;21.55;;;11.80;;
80425;SDS011;69766;51.476;5.704;2023-06-01T00:42:36;24.77;;;11.00;;
80425;SDS011;69766;51.476;5.704;2023-06-01T00:45:02;24.10;;;12.07;;
80425;SDS011;69766;51.476;5.704;2023-06-01T00:47:28;20.60;;;11.50;;
80425;SDS011;69766;51.476;5.704;2023-06-01T00:49:53;22.52;;;11.52;;
80425;SDS011;69766;51.476;5.704;2023-06-01T00:52:19;23.70;;;11.55;;
80425;SDS011;69766;51.476;5.704;2023-06-01T00:54:50;21.48;;;11.20;;
80425;SDS011;69766;51.476;5.704;2023-06-01T00:57:16;21.70;;;12.55;;
80425;SDS011;69766;51.476;5.704;2023-06-01T00:59:42;28.13;;;12.15;;
80425;SDS011;69766;51.476;5.704;2023-06-01T01:02:07;25.75;;;12.93;;
80425;SDS011;69766;51.476;5.704;2023-06-01T01:04:36;25.52;;;12.55;;
80425;SDS011;69766;51.476;5.704;2023-06-01T01:13:15;22.98;;;12.60;;
80425;SDS011;69766;51.476;5.704;2023-06-01T01:15:38;26.00;;;13.80;;
80425;SDS011;69766;51.476;5.704;2023-06-01T01:18:08;26.40;;;14.10;;
80425;SDS011;69766;51.476;5.704;2023-06-01T01:20:51;22.30;;;12.73;;
80425;SDS011;69766;51.476;5.704;2023-06-01T01:29:42;21.40;;;12.20;;
80425;SDS011;69766;51.476;5.704;2023-06-01T01:32:11;25.75;;;12.55;;
80425;SDS011;69766;51.476;5.704;2023-06-01T01:34:39;27.73;;;12.35;;
80425;SDS011;69766;51.476;5.704;2023-06-01T01:37:06;25.98;;;12.35;;
80425;SDS011;69766;51.476;5.704;2023-06-01T01:39:32;22.67;;;11.27;;
80425;SDS011;69766;51.476;5.704;2023-06-01T01:41:58;25.95;;;11.43;;
80425;SDS011;69766;51.476;5.704;2023-06-01T01:44:32;26.17;;;11.85;;
80425;SDS011;69766;51.476;5.704;2023-06-01T01:47:03;26.63;;;13.05;;
80425;SDS011;69766;51.476;5.704;2023-06-01T01:49:53;26.67;;;11.88;;
80425;SDS011;69766;51.476;5.704;2023-06-01T01:52:42;24.23;;;11.18;;
80425;SDS011;69766;51.476;5.704;2023-06-01T01:55:10;23.33;;;11.70;;
80425;SDS011;69766;51.476;5.704;2023-06-01T01:57:37;26.73;;;11.15;;
80425;SDS011;69766;51.476;5.704;2023-06-01T02:00:07;30.38;;;12.98;;
80425;SDS011;69766;51.476;5.704;2023-06-01T02:02:33;23.60;;;12.23;;
80425;SDS011;69766;51.476;5.704;2023-06-01T02:04:59;26.63;;;12.48;;
80425;SDS011;69766;51.476;5.704;2023-06-01T02:07:25;28.33;;;13.43;;
80425;SDS011;69766;51.476;5.704;2023-06-01T02:09:51;25.92;;;12.52;;
80425;SDS011;69766;51.476;5.704;2023-06-01T02:12:16;27.73;;;13.98;;
80425;SDS011;69766;51.476;5.704;2023-06-01T02:14:42;27.60;;;13.13;;
80425;SDS011;69766;51.476;5.704;2023-06-01T02:17:08;29.63;;;12.45;;
80425;SDS011;69766;51.476;5.704;2023-06-01T02:19:33;23.50;;;12.25;;
80425;SDS011;69766;51.476;5.704;2023-06-01T02:21:59;23.05;;;11.95;;
80425;SDS011;69766;51.476;5.704;2023-06-01T02:24:25;28.58;;;12.88;;
80425;SDS011;69766;51.476;5.704;2023-06-01T02:26:51;23.33;;;12.20;;
80425;SDS011;69766;51.476;5.704;2023-06-01T02:29:21;33.42;;;13.23;;
80425;SDS011;69766;51.476;5.704;2023-06-01T02:31:48;29.58;;;13.45;;
80425;SDS011;69766;51.476;5.704;2023-06-01T02:34:14;22.60;;;11.80;;
80425;SDS011;69766;51.476;5.704;2023-06-01T02:36:40;29.60;;;12.95;;
80425;SDS011;69766;51.476;5.704;2023-06-01T02:39:06;34.13;;;13.13;;
80425;SDS011;69766;51.476;5.704;2023-06-01T02:41:31;24.33;;;12.25;;
80425;SDS011;69766;51.476;5.704;2023-06-01T02:43:57;30.17;;;13.13;;
80425;SDS011;69766;51.476;5.704;2023-06-01T02:46:23;25.45;;;11.35;;
80425;SDS011;69766;51.476;5.704;2023-06-01T02:48:48;23.63;;;11.82;;
80425;SDS011;69766;51.476;5.704;2023-06-01T02:51:18;23.60;;;12.00;;
80425;SDS011;69766;51.476;5.704;2023-06-01T02:53:53;27.98;;;12.73;;
80425;SDS011;69766;51.476;5.704;2023-06-01T02:56:19;24.17;;;11.15;;
80425;SDS011;69766;51.476;5.704;2023-06-01T02:58:51;19.33;;;10.05;;
80425;SDS011;69766;51.476;5.704;2023-06-01T03:04:48;22.60;;;11.27;;
80425;SDS011;69766;51.476;5.704;2023-06-01T03:07:14;23.35;;;11.82;;
80425;SDS011;69766;51.476;5.704;2023-06-01T03:09:40;20.17;;;11.20;;
80425;SDS011;69766;51.476;5.704;2023-06-01T03:12:06;18.08;;;10.95;;
80425;SDS011;69766;51.476;5.704;2023-06-01T03:14:32;24.17;;;12.02;;
80425;SDS011;69766;51.476;5.704;2023-06-01T03:16:57;18.08;;;10.75;;
80425;SDS011;69766;51.476;5.704;2023-06-01T03:19:35;21.05;;;10.85;;
80425;SDS011;69766;51.476;5.704;2023-06-01T03:22:21;21.38;;;11.40;;
80425;SDS011;69766;51.476;5.704;2023-06-01T03:24:50;25.50;;;12.85;;
80425;SDS011;69766;51.476;5.704;2023-06-01T03:27:42;23.98;;;11.27;;
80425;SDS011;69766;51.476;5.704;2023-06-01T03:30:08;23.48;;;12.88;;
80425;SDS011;69766;51.476;5.704;2023-06-01T03:32:37;23.35;;;12.30;;
80425;SDS011;69766;51.476;5.704;2023-06-01T03:35:07;30.45;;;13.40;;
80425;SDS011;69766;51.476;5.704;2023-06-01T03:37:34;22.35;;;11.68;;
80425;SDS011;69766;51.476;5.704;2023-06-01T03:40:00;27.35;;;12.20;;
80425;SDS011;69766;51.476;5.704;2023-06-01T03:42:26;27.92;;;12.25;;
80425;SDS011;69766;51.476;5.704;2023-06-01T03:44:52;19.40;;;12.27;;
80425;SDS011;69766;51.476;5.704;2023-06-01T03:47:24;21.98;;;11.68;;
80425;SDS011;69766;51.476;5.704;2023-06-01T03:49:49;20.77;;;12.30;;
80425;SDS011;69766;51.476;5.704;2023-06-01T03:52:15;28.58;;;13.27;;
80425;SDS011;69766;51.476;5.704;2023-06-01T03:54:43;20.85;;;12.30;;
80425;SDS011;69766;51.476;5.704;2023-06-01T03:57:09;21.70;;;12.05;;
80425;SDS011;69766;51.476;5.704;2023-06-01T03:59:35;22.90;;;12.60;;
80425;SDS011;69766;51.476;5.704;2023-06-01T04:02:01;24.02;;;12.02;;
80425;SDS011;69766;51.476;5.704;2023-06-01T04:04:28;24.73;;;12.10;;
80425;SDS011;69766;51.476;5.704;2023-06-01T04:06:54;19.65;;;11.05;;
80425;SDS011;69766;51.476;5.704;2023-06-01T04:09:26;22.02;;;11.90;;
80425;SDS011;69766;51.476;5.704;2023-06-01T04:11:55;22.40;;;11.18;;
80425;SDS011;69766;51.476;5.704;2023-06-01T04:14:21;20.13;;;11.48;;
80425;SDS011;69766;51.476;5.704;2023-06-01T04:16:46;18.98;;;11.57;;
80425;SDS011;69766;51.476;5.704;2023-06-01T04:19:12;20.85;;;11.30;;
80425;SDS011;69766;51.476;5.704;2023-06-01T04:21:38;21.27;;;11.45;;
80425;SDS011;69766;51.476;5.704;2023-06-01T04:24:04;20.50;;;11.68;;
80425;SDS011;69766;51.476;5.704;2023-06-01T04:26:30;22.27;;;11.38;;
80425;SDS011;69766;51.476;5.704;2023-06-01T04:28:59;21.27;;;11.60;;
80425;SDS011;69766;51.476;5.704;2023-06-01T04:31:25;21.00;;;11.38;;
80425;SDS011;69766;51.476;5.704;2023-06-01T04:34:00;22.30;;;11.55;;
80425;SDS011;69766;51.476;5.704;2023-06-01T04:36:29;23.35;;;11.35;;
80425;SDS011;69766;51.476;5.704;2023-06-01T04:39:00;25.92;;;11.63;;
80425;SDS011;69766;51.476;5.704;2023-06-01T04:41:29;19.55;;;10.38;;
80425;SDS011;69766;51.476;5.704;2023-06-01T04:43:56;23.13;;;12.15;;
80425;SDS011;69766;51.476;5.704;2023-06-01T04:46:25;22.98;;;11.40;;
80425;SDS011;69766;51.476;5.704;2023-06-01T04:48:54;23.70;;;12.45;;
80425;SDS011;69766;51.476;5.704;2023-06-01T04:51:22;21.70;;;11.10;;
80425;SDS011;69766;51.476;5.704;2023-06-01T04:56:32;22.55;;;11.73;;
80425;SDS011;69766;51.476;5.704;2023-06-01T04:58:58;21.70;;;11.60;;
80425;SDS011;69766;51.476;5.704;2023-06-01T05:01:26;24.08;;;12.25;;
80425;SDS011;69766;51.476;5.704;2023-06-01T05:03:56;19.48;;;11.07;;
80425;SDS011;69766;51.476;5.704;2023-06-01T05:06:22;22.80;;;11.20;;
80425;SDS011;69766;51.476;5.704;2023-06-01T05:08:52;18.73;;;11.40;;
80425;SDS011;69766;51.476;5.704;2023-06-01T05:11:18;18.25;;;10.68;;
80425;SDS011;69766;51.476;5.704;2023-06-01T05:13:44;20.08;;;10.82;;
80425;SDS011;69766;51.476;5.704;2023-06-01T05:16:10;19.23;;;11.38;;
80425;SDS011;69766;51.476;5.704;2023-06-01T05:18:35;17.67;;;11.15;;
80425;SDS011;69766;51.476;5.704;2023-06-01T05:21:01;24.10;;;11.63;;
80425;SDS011;69766;51.476;5.704;2023-06-01T05:23:28;19.58;;;10.85;;
80425;SDS011;69766;51.476;5.704;2023-06-01T05:25:54;21.58;;;10.45;;
80425;SDS011;69766;51.476;5.704;2023-06-01T05:28:28;24.02;;;12.25;;
80425;SDS011;69766;51.476;5.704;2023-06-01T05:30:58;21.70;;;10.02;;
80425;SDS011;69766;51.476;5.704;2023-06-01T05:33:24;20.58;;;11.13;;
80425;SDS011;69766;51.476;5.704;2023-06-01T05:35:50;21.15;;;11.65;;
80425;SDS011;69766;51.476;5.704;2023-06-01T05:38:16;22.42;;;11.73;;
80425;SDS011;69766;51.476;5.704;2023-06-01T05:40:47;22.65;;;11.82;;
80425;SDS011;69766;51.476;5.704;2023-06-01T05:43:13;20.60;;;11.88;;
80425;SDS011;69766;51.476;5.704;2023-06-01T05:45:40;19.95;;;10.95;;
80425;SDS011;69766;51.476;5.704;2023-06-01T05:48:06;19.92;;;11.73;;
80425;SDS011;69766;51.476;5.704;2023-06-01T05:50:32;20.17;;;10.70;;
80425;SDS011;69766;51.476;5.704;2023-06-01T05:52:57;20.83;;;11.95;;
80425;SDS011;69766;51.476;5.704;2023-06-01T05:55:23;18.25;;;10.75;;
80425;SDS011;69766;51.476;5.704;2023-06-01T05:57:49;22.42;;;11.63;;
80425;SDS011;69766;51.476;5.704;2023-06-01T06:00:15;25.63;;;12.45;;
80425;SDS011;69766;51.476;5.704;2023-06-01T06:02:42;21.05;;;12.48;;
80425;SDS011;69766;51.476;5.704;2023-06-01T06:05:08;24.27;;;12.48;;
80425;SDS011;69766;51.476;5.704;2023-06-01T06:07:34;21.13;;;12.30;;
80425;SDS011;69766;51.476;5.704;2023-06-01T06:10:00;23.00;;;12.82;;
80425;SDS011;69766;51.476;5.704;2023-06-01T06:12:26;25.83;;;12.13;;
80425;SDS011;69766;51.476;5.704;2023-06-01T06:14:52;24.85;;;12.43;;
80425;SDS011;69766;51.476;5.704;2023-06-01T06:17:18;27.27;;;12.88;;
80425;SDS011;69766;51.476;5.704;2023-06-01T06:19:45;24.63;;;12.63;;
80425;SDS011;69766;51.476;5.704;2023-06-01T06:22:14;22.60;;;11.10;;
80425;SDS011;69766;51.476;5.704;2023-06-01T06:24:40;18.70;;;10.98;;
80425;SDS011;69766;51.476;5.704;2023-06-01T06:27:10;26.38;;;11.48;;
80425;SDS011;69766;51.476;5.704;2023-06-01T06:29:35;18.17;;;10.10;;
80425;SDS011;69766;51.476;5.704;2023-06-01T06:32:01;19.85;;;10.75;;
80425;SDS011;69766;51.476;5.704;2023-06-01T06:34:27;18.17;;;10.18;;
80425;SDS011;69766;51.476;5.704;2023-06-01T06:37:00;17.50;;;10.35;;
80425;SDS011;69766;51.476;5.704;2023-06-01T06:39:36;17.42;;;10.85;;
80425;SDS011;69766;51.476;5.704;2023-06-01T06:42:02;22.80;;;11.50;;
80425;SDS011;69766;51.476;5.704;2023-06-01T06:44:30;25.02;;;11.85;;
80425;SDS011;69766;51.476;5.704;2023-06-01T06:46:59;21.23;;;11.27;;
80425;SDS011;69766;51.476;5.704;2023-06-01T06:49:27;22.42;;;11.90;;
80425;SDS011;69766;51.476;5.704;2023-06-01T06:51:53;20.58;;;11.48;;
80425;SDS011;69766;51.476;5.704;2023-06-01T06:54:19;22.02;;;11.82;;
80425;SDS011;69766;51.476;5.704;2023-06-01T06:56:47;22.60;;;12.05;;
80425;SDS011;69766;51.476;5.704;2023-06-01T06:59:13;21.65;;;11.07;;
80425;SDS011;69766;51.476;5.704;2023-06-01T07:01:42;21.30;;;11.73;;
80425;SDS011;69766;51.476;5.704;2023-06-01T07:04:08;18.63;;;11.00;;
80425;SDS011;69766;51.476;5.704;2023-06-01T07:06:33;19.65;;;10.32;;
80425;SDS011;69766;51.476;5.704;2023-06-01T07:08:59;19.05;;;9.45;;
80425;SDS011;69766;51.476;5.704;2023-06-01T07:11:26;17.23;;;9.18;;
80425;SDS011;69766;51.476;5.704;2023-06-01T07:13:55;17.05;;;8.18;;
80425;SDS011;69766;51.476;5.704;2023-06-01T07:16:22;17.10;;;9.07;;
80425;SDS011;69766;51.476;5.704;2023-06-01T07:18:49;17.02;;;8.25;;
80425;SDS011;69766;51.476;5.704;2023-06-01T07:21:16;15.80;;;8.02;;
80425;SDS011;69766;51.476;5.704;2023-06-01T07:23:42;15.95;;;9.18;;
80425;SDS011;69766;51.476;5.704;2023-06-01T07:26:09;13.15;;;8.23;;
80425;SDS011;69766;51.476;5.704;2023-06-01T07:28:35;14.05;;;7.70;;
80425;SDS011;69766;51.476;5.704;2023-06-01T07:31:02;14.98;;;8.48;;
80425;SDS011;69766;51.476;5.704;2023-06-01T07:33:28;14.68;;;8.32;;
80425;SDS011;69766;51.476;5.704;2023-06-01T07:35:54;13.85;;;7.85;;
80425;SDS011;69766;51.476;5.704;2023-06-01T07:38:22;14.10;;;7.72;;
80425;SDS011;69766;51.476;5.704;2023-06-01T07:40:49;13.30;;;7.28;;
80425;SDS011;69766;51.476;5.704;2023-06-01T07:43:18;12.07;;;7.18;;
80425;SDS011;69766;51.476;5.704;2023-06-01T07:45:44;19.33;;;8.43;;
80425;SDS011;69766;51.476;5.704;2023-06-01T07:48:09;15.55;;;8.02;;
80425;SDS011;69766;51.476;5.704;2023-06-01T07:50:35;14.25;;;8.70;;
80425;SDS011;69766;51.476;5.704;2023-06-01T07:53:01;14.43;;;7.78;;
80425;SDS011;69766;51.476;5.704;2023-06-01T07:55:27;17.30;;;7.82;;
80425;SDS011;69766;51.476;5.704;2023-06-01T07:57:53;12.52;;;8.63;;
80425;SDS011;69766;51.476;5.704;2023-06-01T08:00:19;17.50;;;8.98;;
80425;SDS011;69766;51.476;5.704;2023-06-01T08:02:45;12.25;;;7.68;;
80425;SDS011;69766;51.476;5.704;2023-06-01T08:05:11;13.75;;;8.30;;
80425;SDS011;69766;51.476;5.704;2023-06-01T08:07:37;16.30;;;8.30;;
80425;SDS011;69766;51.476;5.704;2023-06-01T08:10:07;14.25;;;8.63;;
80425;SDS011;69766;51.476;5.704;2023-06-01T08:12:33;11.75;;;8.27;;
80425;SDS011;69766;51.476;5.704;2023-06-01T08:15:00;12.75;;;8.43;;
80425;SDS011;69766;51.476;5.704;2023-06-01T08:17:28;13.15;;;7.72;;
80425;SDS011;69766;51.476;5.704;2023-06-01T08:19:54;15.23;;;9.75;;
80425;SDS011;69766;51.476;5.704;2023-06-01T08:22:22;14.68;;;8.43;;
80425;SDS011;69766;51.476;5.704;2023-06-01T08:24:52;13.60;;;8.18;;
80425;SDS011;69766;51.476;5.704;2023-06-01T08:27:18;15.30;;;8.40;;
80425;SDS011;69766;51.476;5.704;2023-06-01T08:29:48;13.75;;;8.10;;
80425;SDS011;69766;51.476;5.704;2023-06-01T08:32:15;15.23;;;8.95;;
80425;SDS011;69766;51.476;5.704;2023-06-01T08:34:44;16.10;;;8.88;;
80425;SDS011;69766;51.476;5.704;2023-06-01T08:37:12;15.45;;;8.45;;
80425;SDS011;69766;51.476;5.704;2023-06-01T08:39:38;16.02;;;8.90;;
80425;SDS011;69766;51.476;5.704;2023-06-01T08:42:09;15.07;;;7.97;;
80425;SDS011;69766;51.476;5.704;2023-06-01T08:44:46;17.63;;;8.80;;
80425;SDS011;69766;51.476;5.704;2023-06-01T08:47:12;14.68;;;8.50;;
80425;SDS011;69766;51.476;5.704;2023-06-01T08:49:40;14.93;;;8.70;;
80425;SDS011;69766;51.476;5.704;2023-06-01T08:52:09;13.85;;;7.68;;
80425;SDS011;69766;51.476;5.704;2023-06-01T08:57:03;16.80;;;8.88;;
80425;SDS011;69766;51.476;5.704;2023-06-01T08:59:35;14.65;;;8.05;;
80425;SDS011;69766;51.476;5.704;2023-06-01T09:02:01;14.68;;;8.48;;
80425;SDS011;69766;51.476;5.704;2023-06-01T09:04:27;13.80;;;8.32;;
80425;SDS011;69766;51.476;5.704;2023-06-01T09:06:55;14.82;;;8.38;;
80425;SDS011;69766;51.476;5.704;2023-06-01T09:09:21;16.20;;;7.82;;
80425;SDS011;69766;51.476;5.704;2023-06-01T09:11:47;18.88;;;8.45;;
80425;SDS011;69766;51.476;5.704;2023-06-01T09:14:22;12.82;;;8.75;;
80425;SDS011;69766;51.476;5.704;2023-06-01T09:16:49;15.93;;;8.95;;
80425;SDS011;69766;51.476;5.704;2023-06-01T09:19:15;14.00;;;8.68;;
80425;SDS011;69766;51.476;5.704;2023-06-01T09:21:58;15.65;;;8.20;;
80425;SDS011;69766;51.476;5.704;2023-06-01T09:24:24;15.07;;;9.00;;
80425;SDS011;69766;51.476;5.704;2023-06-01T09:26:51;16.25;;;9.32;;
80425;SDS011;69766;51.476;5.704;2023-06-01T09:29:23;15.35;;;8.68;;
80425;SDS011;69766;51.476;5.704;2023-06-01T09:31:48;14.32;;;9.00;;
80425;SDS011;69766;51.476;5.704;2023-06-01T09:34:15;13.15;;;9.10;;
80425;SDS011;69766;51.476;5.704;2023-06-01T09:36:44;13.90;;;8.77;;
80425;SDS011;69766;51.476;5.704;2023-06-01T09:39:13;18.37;;;9.73;;
80425;SDS011;69766;51.476;5.704;2023-06-01T09:41:48;14.73;;;9.32;;
80425;SDS011;69766;51.476;5.704;2023-06-01T09:46:55;15.75;;;9.52;;
80425;SDS011;69766;51.476;5.704;2023-06-01T09:49:25;12.88;;;9.02;;
80425;SDS011;69766;51.476;5.704;2023-06-01T09:54:31;14.80;;;9.25;;
80425;SDS011;69766;51.476;5.704;2023-06-01T09:56:59;15.20;;;8.75;;
80425;SDS011;69766;51.476;5.704;2023-06-01T09:59:27;17.23;;;9.48;;
80425;SDS011;69766;51.476;5.704;2023-06-01T10:01:54;13.32;;;9.00;;
80425;SDS011;69766;51.476;5.704;2023-06-01T10:04:22;17.33;;;10.98;;
80425;SDS011;69766;51.476;5.704;2023-06-01T10:06:52;17.55;;;10.85;;
80425;SDS011;69766;51.476;5.704;2023-06-01T10:09:21;16.15;;;10.40;;
80425;SDS011;69766;51.476;5.704;2023-06-01T10:11:49;17.95;;;10.77;;
80425;SDS011;69766;51.476;5.704;2023-06-01T10:14:18;16.95;;;9.35;;
80425;SDS011;69766;51.476;5.704;2023-06-01T10:16:45;19.38;;;10.23;;
80425;SDS011;69766;51.476;5.704;2023-06-01T10:19:13;15.48;;;8.52;;
80425;SDS011;69766;51.476;5.704;2023-06-01T10:21:39;14.40;;;8.75;;
80425;SDS011;69766;51.476;5.704;2023-06-01T10:24:05;13.43;;;8.20;;
80425;SDS011;69766;51.476;5.704;2023-06-01T10:26:41;14.18;;;8.80;;
80425;SDS011;69766;51.476;5.704;2023-06-01T10:29:26;15.95;;;9.88;;
80425;SDS011;69766;51.476;5.704;2023-06-01T10:31:54;20.30;;;9.02;;
80425;SDS011;69766;51.476;5.704;2023-06-01T10:34:53;13.82;;;9.13;;
80425;SDS011;69766;51.476;5.704;2023-06-01T10:39:41;13.83;;;8.50;;
80425;SDS011;69766;51.476;5.704;2023-06-01T10:47:05;15.27;;;9.25;;
80425;SDS011;69766;51.476;5.704;2023-06-01T10:52:31;18.13;;;9.93;;
80425;SDS011;69766;51.476;5.704;2023-06-01T11:00:12;15.95;;;9.48;;
80425;SDS011;69766;51.476;5.704;2023-06-01T11:13:17;15.30;;;8.93;;
80425;SDS011;69766;51.476;5.704;2023-06-01T11:19:17;19.60;;;10.40;;
80425;SDS011;69766;51.476;5.704;2023-06-01T11:21:28;17.13;;;10.48;;
80425;SDS011;69766;51.476;5.704;2023-06-01T11:23:57;17.35;;;9.30;;
80425;SDS011;69766;51.476;5.704;2023-06-01T11:26:29;17.80;;;9.45;;
80425;SDS011;69766;51.476;5.704;2023-06-01T11:31:39;14.82;;;9.43;;
80425;SDS011;69766;51.476;5.704;2023-06-01T11:34:17;17.77;;;10.50;;
80425;SDS011;69766;51.476;5.704;2023-06-01T11:36:45;14.82;;;9.18;;
80425;SDS011;69766;51.476;5.704;2023-06-01T11:39:19;14.60;;;9.52;;
80425;SDS011;69766;51.476;5.704;2023-06-01T11:41:50;18.67;;;7.78;;
80425;SDS011;69766;51.476;5.704;2023-06-01T11:44:17;16.63;;;8.65;;
80425;SDS011;69766;51.476;5.704;2023-06-01T11:46:53;17.88;;;9.15;;
80425;SDS011;69766;51.476;5.704;2023-06-01T11:49:21;14.98;;;9.38;;
80425;SDS011;69766;51.476;5.704;2023-06-01T11:51:48;16.77;;;9.70;;
80425;SDS011;69766;51.476;5.704;2023-06-01T11:54:16;14.23;;;8.15;;
80425;SDS011;69766;51.476;5.704;2023-06-01T11:56:46;16.50;;;8.10;;
80425;SDS011;69766;51.476;5.704;2023-06-01T11:59:11;15.57;;;8.63;;
80425;SDS011;69766;51.476;5.704;2023-06-01T12:01:41;13.35;;;7.65;;
80425;SDS011;69766;51.476;5.704;2023-06-01T12:04:15;14.52;;;7.70;;
80425;SDS011;69766;51.476;5.704;2023-06-01T12:06:43;14.07;;;8.02;;
80425;SDS011;69766;51.476;5.704;2023-06-01T12:09:10;16.38;;;7.93;;
80425;SDS011;69766;51.476;5.704;2023-06-01T12:11:38;14.00;;;7.60;;
80425;SDS011;69766;51.476;5.704;2023-06-01T12:14:04;12.65;;;7.78;;
80425;SDS011;69766;51.476;5.704;2023-06-01T12:19:21;15.77;;;7.32;;
80425;SDS011;69766;51.476;5.704;2023-06-01T12:21:50;14.50;;;7.25;;
80425;SDS011;69766;51.476;5.704;2023-06-01T12:24:18;12.10;;;7.05;;
80425;SDS011;69766;51.476;5.704;2023-06-01T12:26:52;18.60;;;7.68;;
80425;SDS011;69766;51.476;5.704;2023-06-01T12:29:33;14.48;;;8.30;;
80425;SDS011;69766;51.476;5.704;2023-06-01T12:32:09;14.32;;;7.57;;
80425;SDS011;69766;51.476;5.704;2023-06-01T12:34:36;15.70;;;7.93;;
80425;SDS011;69766;51.476;5.704;2023-06-01T12:37:12;14.15;;;7.70;;
80425;SDS011;69766;51.476;5.704;2023-06-01T12:39:54;14.63;;;6.95;;
80425;SDS011;69766;51.476;5.704;2023-06-01T12:42:37;13.45;;;6.18;;
80425;SDS011;69766;51.476;5.704;2023-06-01T12:45:04;11.93;;;6.40;;
80425;SDS011;69766;51.476;5.704;2023-06-01T12:47:34;13.27;;;6.68;;
80425;SDS011;69766;51.476;5.704;2023-06-01T12:50:02;11.63;;;7.10;;
80425;SDS011;69766;51.476;5.704;2023-06-01T12:52:29;13.15;;;7.47;;
80425;SDS011;69766;51.476;5.704;2023-06-01T12:54:54;10.82;;;6.82;;
80425;SDS011;69766;51.476;5.704;2023-06-01T12:57:20;10.48;;;6.85;;
80425;SDS011;69766;51.476;5.704;2023-06-01T12:59:46;13.05;;;6.95;;
80425;SDS011;69766;51.476;5.704;2023-06-01T13:02:13;13.90;;;7.65;;
80425;SDS011;69766;51.476;5.704;2023-06-01T13:04:39;11.55;;;6.05;;
80425;SDS011;69766;51.476;5.704;2023-06-01T13:07:04;13.10;;;5.75;;
80425;SDS011;69766;51.476;5.704;2023-06-01T13:09:30;10.05;;;6.38;;
80425;SDS011;69766;51.476;5.704;2023-06-01T13:11:56;10.40;;;6.32;;
80425;SDS011;69766;51.476;5.704;2023-06-01T13:14:22;11.15;;;6.68;;
80425;SDS011;69766;51.476;5.704;2023-06-01T13:16:47;12.57;;;6.20;;
80425;SDS011;69766;51.476;5.704;2023-06-01T13:19:13;13.52;;;6.05;;
80425;SDS011;69766;51.476;5.704;2023-06-01T13:21:39;15.07;;;6.93;;
80425;SDS011;69766;51.476;5.704;2023-06-01T13:24:04;13.55;;;6.63;;
80425;SDS011;69766;51.476;5.704;2023-06-01T13:26:30;14.02;;;6.20;;
80425;SDS011;69766;51.476;5.704;2023-06-01T13:28:56;13.85;;;6.68;;
80425;SDS011;69766;51.476;5.704;2023-06-01T13:31:22;9.98;;;6.65;;
80425;SDS011;69766;51.476;5.704;2023-06-01T13:33:48;11.75;;;6.45;;
80425;SDS011;69766;51.476;5.704;2023-06-01T13:36:13;11.50;;;5.53;;
80425;SDS011;69766;51.476;5.704;2023-06-01T13:38:40;12.10;;;5.65;;
80425;SDS011;69766;51.476;5.704;2023-06-01T13:41:05;13.98;;;6.47;;
80425;SDS011;69766;51.476;5.704;2023-06-01T13:43:31;14.10;;;5.88;;
80425;SDS011;69766;51.476;5.704;2023-06-01T13:45:57;13.10;;;5.90;;
80425;SDS011;69766;51.476;5.704;2023-06-01T13:48:23;12.93;;;6.15;;
80425;SDS011;69766;51.476;5.704;2023-06-01T13:50:49;11.27;;;5.70;;
80425;SDS011;69766;51.476;5.704;2023-06-01T13:53:16;11.68;;;5.82;;
80425;SDS011;69766;51.476;5.704;2023-06-01T13:55:42;11.82;;;6.18;;
80425;SDS011;69766;51.476;5.704;2023-06-01T13:58:08;12.00;;;5.97;;
80425;SDS011;69766;51.476;5.704;2023-06-01T14:00:33;11.75;;;6.40;;
80425;SDS011;69766;51.476;5.704;2023-06-01T14:02:59;12.15;;;6.30;;
80425;SDS011;69766;51.476;5.704;2023-06-01T14:05:25;11.57;;;6.25;;
80425;SDS011;69766;51.476;5.704;2023-06-01T14:07:50;13.02;;;6.60;;
80425;SDS011;69766;51.476;5.704;2023-06-01T14:10:16;11.35;;;6.30;;
80425;SDS011;69766;51.476;5.704;2023-06-01T14:12:42;12.80;;;6.75;;
80425;SDS011;69766;51.476;5.704;2023-06-01T14:15:08;12.90;;;7.18;;
80425;SDS011;69766;51.476;5.704;2023-06-01T14:17:34;14.27;;;6.53;;
80425;SDS011;69766;51.476;5.704;2023-06-01T14:19:59;14.45;;;7.43;;
80425;SDS011;69766;51.476;5.704;2023-06-01T14:22:25;16.30;;;7.18;;
80425;SDS011;69766;51.476;5.704;2023-06-01T14:24:50;13.45;;;7.63;;
80425;SDS011;69766;51.476;5.704;2023-06-01T14:27:16;14.25;;;7.82;;
80425;SDS011;69766;51.476;5.704;2023-06-01T14:29:48;13.60;;;7.38;;
80425;SDS011;69766;51.476;5.704;2023-06-01T14:32:14;14.60;;;7.38;;
80425;SDS011;69766;51.476;5.704;2023-06-01T14:34:40;12.45;;;6.53;;
80425;SDS011;69766;51.476;5.704;2023-06-01T14:37:05;14.07;;;6.53;;
80425;SDS011;69766;51.476;5.704;2023-06-01T14:39:32;12.85;;;6.60;;
80425;SDS011;69766;51.476;5.704;2023-06-01T14:41:57;16.80;;;5.88;;
80425;SDS011;69766;51.476;5.704;2023-06-01T14:44:23;13.02;;;6.63;;
80425;SDS011;69766;51.476;5.704;2023-06-01T14:46:49;12.90;;;5.90;;
80425;SDS011;69766;51.476;5.704;2023-06-01T14:49:14;11.60;;;6.10;;
80425;SDS011;69766;51.476;5.704;2023-06-01T14:51:40;10.82;;;7.28;;
80425;SDS011;69766;51.476;5.704;2023-06-01T14:54:06;13.38;;;6.72;;
80425;SDS011;69766;51.476;5.704;2023-06-01T14:56:31;11.70;;;5.82;;
80425;SDS011;69766;51.476;5.704;2023-06-01T14:58:57;11.60;;;6.03;;
80425;SDS011;69766;51.476;5.704;2023-06-01T15:01:23;14.13;;;8.00;;
80425;SDS011;69766;51.476;5.704;2023-06-01T15:03:51;13.32;;;6.85;;
80425;SDS011;69766;51.476;5.704;2023-06-01T15:06:17;11.88;;;6.28;;
80425;SDS011;69766;51.476;5.704;2023-06-01T15:08:43;13.45;;;6.22;;
80425;SDS011;69766;51.476;5.704;2023-06-01T15:11:08;10.63;;;5.25;;
80425;SDS011;69766;51.476;5.704;2023-06-01T15:13:34;9.85;;;5.90;;
80425;SDS011;69766;51.476;5.704;2023-06-01T15:16:00;18.48;;;6.10;;
80425;SDS011;69766;51.476;5.704;2023-06-01T15:18:25;12.07;;;5.93;;
80425;SDS011;69766;51.476;5.704;2023-06-01T15:20:51;12.30;;;5.88;;
80425;SDS011;69766;51.476;5.704;2023-06-01T15:23:17;17.35;;;6.45;;
80425;SDS011;69766;51.476;5.704;2023-06-01T15:25:44;13.35;;;5.55;;
80425;SDS011;69766;51.476;5.704;2023-06-01T15:28:10;12.13;;;5.88;;
80425;SDS011;69766;51.476;5.704;2023-06-01T15:30:35;13.10;;;5.88;;
80425;SDS011;69766;51.476;5.704;2023-06-01T15:33:02;17.20;;;6.85;;